createdAt,value
2022-09-09T00:01:36.706Z,16.9
2022-09-09T00:06:42.958Z,16.8
2022-09-09T00:11:49.154Z,16.8
2022-09-09T00:16:55.357Z,16.7
2022-09-09T00:22:01.571Z,16.7
2022-09-09T00:27:07.777Z,16.6
2022-09-09T00:32:13.989Z,16.5
2022-09-09T00:37:20.198Z,16.5
2022-09-09T00:42:26.414Z,16.5
2022-09-09T00:47:32.624Z,16.4
2022-09-09T00:52:38.833Z,16.4
2022-09-09T00:57:45.041Z,16.3
2022-09-09T01:18:10.169Z,16.2
2022-09-09T01:23:15.143Z,16.1
2022-09-09T01:28:27.468Z,16.1
2022-09-09T01:33:32.712Z,16.1
2022-09-09T01:38:45.045Z,16.1
2022-09-09T01:43:50.287Z,16.1
2022-09-09T01:49:02.620Z,16.1
2022-09-09T01:54:14.961Z,16.1
2022-09-09T01:59:27.273Z,16.1
2022-09-09T02:04:39.614Z,16.1
2022-09-09T02:09:51.941Z,16.1
2022-09-09T02:15:03.302Z,16.1
2022-09-09T02:20:09.519Z,16.1
2022-09-09T02:25:15.742Z,16.1
2022-09-09T02:30:22.054Z,16.1
2022-09-09T02:35:28.156Z,16.1
2022-09-09T02:40:34.378Z,16.2
2022-09-09T02:45:40.622Z,16.1
2022-09-09T02:50:46.807Z,16.1
2022-09-09T02:55:53.021Z,16.1
2022-09-09T03:00:59.319Z,16.1
2022-09-09T03:06:05.449Z,16.1
2022-09-09T03:11:11.669Z,16.1
2022-09-09T03:16:17.947Z,16.1
2022-09-09T03:21:24.106Z,16.1
2022-09-09T03:26:30.311Z,16.1
2022-09-09T03:31:36.652Z,16.1
2022-09-09T03:36:42.739Z,16.1
2022-09-09T03:41:48.948Z,16.1
2022-09-09T03:46:55.175Z,16.2
2022-09-09T03:52:01.393Z,16.2
2022-09-09T03:57:07.618Z,16.2
2022-09-09T04:02:12.939Z,16.3
2022-09-09T04:07:19.059Z,16.3
2022-09-09T04:12:24.299Z,16.4
2022-09-09T04:17:30.511Z,16.4
2022-09-09T04:22:36.716Z,16.4
2022-09-09T04:27:42.935Z,16.5
2022-09-09T04:32:49.142Z,16.5
2022-09-09T04:37:55.349Z,16.5
2022-09-09T04:43:01.568Z,16.6
2022-09-09T04:48:07.779Z,16.6
2022-09-09T04:53:13.986Z,16.7
2022-09-09T04:58:20.193Z,16.7
2022-09-09T05:03:26.402Z,16.8
2022-09-09T05:08:32.673Z,16.8
2022-09-09T05:13:41.475Z,16.8
2022-09-09T05:18:45.030Z,16.8
2022-09-09T05:23:51.236Z,16.9
2022-09-09T05:28:57.452Z,16.9
2022-09-09T05:34:03.659Z,16.9
2022-09-09T05:39:09.865Z,16.9
2022-09-09T05:44:16.072Z,17.0
2022-09-09T05:49:22.279Z,17.0
2022-09-09T05:54:28.490Z,17.0
2022-09-09T05:59:33.729Z,17.1
2022-09-09T06:04:39.945Z,17.1
2022-09-09T06:09:46.156Z,17.2
2022-09-09T06:14:52.360Z,17.2
2022-09-09T06:19:57.598Z,17.2
2022-09-09T06:25:03.809Z,17.2
2022-09-09T06:30:10.017Z,17.3
2022-09-09T06:35:16.220Z,17.4
2022-09-09T06:40:22.429Z,17.5
2022-09-09T06:45:28.641Z,17.7
2022-09-09T06:50:34.843Z,17.9
2022-09-09T06:55:41.051Z,18.2
2022-09-09T07:00:47.326Z,18.4
2022-09-09T07:05:53.472Z,18.6
2022-09-09T07:10:59.699Z,18.6
2022-09-09T07:16:05.917Z,18.7
2022-09-09T07:21:12.108Z,18.8
2022-09-09T07:26:18.303Z,18.9
2022-09-09T07:31:24.564Z,19.0
2022-09-09T07:36:33.440Z,19.2
2022-09-09T07:41:36.937Z,19.4
2022-09-09T07:46:43.272Z,19.4
2022-09-09T07:51:49.360Z,19.4
2022-09-09T07:56:55.559Z,19.4
2022-09-09T08:02:00.822Z,19.4
2022-09-09T08:07:06.023Z,19.6
2022-09-09T08:12:12.241Z,19.8
2022-09-09T08:17:17.461Z,20.0
2022-09-09T08:22:23.679Z,20.1
2022-09-09T08:27:29.877Z,20.1
2022-09-09T08:32:36.088Z,20.0
2022-09-09T08:37:42.294Z,20.1
2022-09-09T08:42:48.502Z,20.2
2022-09-09T08:47:54.710Z,20.2
2022-09-09T08:53:00.926Z,20.2
2022-09-09T08:58:07.139Z,20.3
2022-09-09T09:03:13.370Z,20.4
2022-09-09T09:08:19.546Z,20.5
2022-09-09T09:13:25.755Z,20.5
2022-09-09T09:18:31.975Z,20.5
2022-09-09T09:23:38.177Z,20.6
2022-09-09T09:28:44.384Z,20.7
2022-09-09T09:33:50.624Z,20.8
2022-09-09T09:44:03.023Z,20.8
2022-09-09T09:49:09.227Z,20.8
2022-09-09T09:54:15.427Z,20.6
2022-09-09T09:59:23.802Z,20.6
2022-09-09T10:04:26.896Z,20.6
2022-09-09T10:09:33.081Z,20.6
2022-09-09T10:14:38.317Z,20.6
2022-09-09T10:19:44.527Z,20.6
2022-09-09T10:24:50.736Z,20.6
2022-09-09T10:29:56.948Z,20.6
2022-09-09T10:35:03.145Z,20.7
2022-09-09T10:40:09.444Z,20.8
2022-09-09T10:45:15.563Z,20.8
2022-09-09T10:50:21.772Z,20.8
2022-09-09T10:55:29.722Z,20.7
2022-09-09T11:00:34.197Z,20.6
2022-09-09T11:05:40.397Z,20.6
2022-09-09T11:10:46.606Z,20.5
2022-09-09T11:15:52.815Z,20.3
2022-09-09T11:20:59.023Z,20.2
2022-09-09T11:26:05.249Z,20.0
2022-09-09T11:31:11.504Z,19.8
2022-09-09T11:36:17.646Z,19.7
2022-09-09T11:41:23.858Z,19.7
2022-09-09T11:46:30.175Z,19.7
2022-09-09T11:51:36.277Z,19.6
2022-09-09T11:56:42.483Z,19.6
2022-09-09T12:01:47.720Z,19.8
2022-09-09T12:12:00.132Z,20.3
2022-09-09T12:17:06.345Z,20.5
2022-09-09T12:22:11.580Z,20.5
2022-09-09T12:27:17.785Z,20.6
2022-09-09T12:32:23.995Z,20.6
2022-09-09T12:37:30.201Z,20.5
2022-09-09T12:42:40.594Z,20.5
2022-09-09T12:47:42.622Z,20.5
2022-09-09T12:52:48.838Z,20.7
2022-09-09T12:57:55.045Z,20.9
2022-09-09T13:03:01.251Z,20.9
2022-09-09T13:08:08.554Z,21.0
2022-09-09T13:13:13.677Z,21.0
2022-09-09T13:18:19.888Z,21.0
2022-09-09T13:23:26.088Z,21.0
2022-09-09T13:28:33.710Z,20.9
2022-09-09T13:33:38.781Z,20.9
2022-09-09T13:38:44.720Z,20.9
2022-09-09T13:43:50.913Z,20.9
2022-09-09T13:48:57.128Z,20.8
2022-09-09T13:54:03.337Z,20.7
2022-09-09T13:59:09.549Z,20.6
2022-09-09T14:04:15.765Z,20.4
2022-09-09T14:09:20.982Z,20.3
2022-09-09T14:14:27.206Z,20.3
2022-09-09T14:19:33.406Z,20.3
2022-09-09T14:24:39.623Z,20.5
2022-09-09T14:29:45.829Z,20.6
2022-09-09T14:34:52.032Z,20.6
2022-09-09T14:39:58.290Z,20.7
2022-09-09T14:45:04.452Z,20.8
2022-09-09T14:50:10.660Z,20.8
2022-09-09T14:55:16.867Z,20.9
2022-09-09T15:00:23.093Z,21.0
2022-09-09T15:05:29.284Z,21.3
2022-09-09T15:10:35.487Z,21.5
2022-09-09T15:15:41.742Z,21.7
2022-09-09T15:25:54.118Z,21.6
2022-09-09T15:31:00.362Z,21.4
2022-09-09T15:36:06.534Z,21.4
2022-09-09T15:41:12.742Z,21.3
2022-09-09T15:46:18.997Z,21.2
2022-09-09T15:51:41.646Z,21.2
2022-09-09T15:56:31.371Z,21.1
2022-09-09T16:01:36.752Z,21.1
2022-09-09T16:06:42.818Z,20.9
2022-09-09T16:11:48.048Z,20.5
2022-09-09T16:16:54.256Z,20.1
2022-09-09T16:22:00.463Z,19.8
2022-09-09T16:27:06.668Z,19.4
2022-09-09T16:32:12.882Z,19.2
2022-09-09T16:37:19.086Z,19.1
2022-09-09T16:42:25.293Z,19.0
2022-09-09T16:47:31.503Z,18.9
2022-09-09T16:52:37.715Z,18.9
2022-09-09T16:57:43.917Z,18.8
2022-09-09T17:02:50.183Z,18.8
2022-09-09T17:07:56.330Z,18.7
2022-09-09T17:13:02.547Z,18.6
2022-09-09T17:18:08.753Z,18.6
2022-09-09T17:23:14.960Z,18.5
2022-09-09T17:28:21.167Z,18.5
2022-09-09T17:33:27.376Z,18.5
2022-09-09T17:38:33.587Z,18.5
2022-09-09T17:43:39.793Z,18.5
2022-09-09T17:48:46.000Z,18.4
2022-09-09T17:53:52.213Z,18.4
2022-09-09T17:58:57.448Z,18.4
2022-09-09T18:04:03.678Z,18.3
2022-09-09T18:09:08.892Z,18.3
2022-09-09T18:14:15.103Z,18.3
2022-09-09T18:19:21.307Z,18.2
2022-09-09T18:24:27.514Z,18.2
2022-09-09T18:29:33.720Z,18.2
2022-09-09T18:34:39.934Z,18.1
2022-09-09T18:39:46.232Z,18.1
2022-09-09T18:44:52.349Z,18.1
2022-09-09T18:49:58.555Z,18.0
2022-09-09T18:55:04.782Z,18.0
2022-09-09T19:00:10.975Z,17.9
2022-09-09T19:05:17.185Z,17.9
2022-09-09T19:10:23.385Z,17.8
2022-09-09T19:15:29.701Z,17.8
2022-09-09T19:20:35.799Z,17.7
2022-09-09T19:25:42.007Z,17.7
2022-09-09T19:30:48.268Z,17.6
2022-09-09T19:35:54.427Z,17.6
2022-09-09T19:41:00.633Z,17.6
2022-09-09T19:46:06.924Z,17.6
2022-09-09T19:51:13.052Z,17.6
2022-09-09T19:56:18.291Z,17.6
2022-09-09T20:01:24.559Z,17.5
2022-09-09T20:06:29.721Z,17.5
2022-09-09T20:11:34.951Z,17.5
2022-09-09T20:16:41.162Z,17.5
2022-09-09T20:21:47.995Z,17.5
2022-09-09T20:26:53.577Z,17.5
2022-09-09T20:31:59.795Z,17.4
2022-09-09T20:37:06.061Z,17.4
2022-09-09T20:42:12.209Z,17.4
2022-09-09T20:47:18.413Z,17.4
2022-09-09T20:52:24.622Z,17.4
2022-09-09T20:57:30.832Z,17.4
2022-09-09T21:02:37.132Z,17.4
2022-09-09T21:07:43.250Z,17.4
2022-09-09T21:12:49.458Z,17.4
2022-09-09T21:17:55.662Z,17.4
2022-09-09T21:23:01.875Z,17.4
2022-09-09T21:28:08.086Z,17.5
2022-09-09T21:33:14.289Z,17.4
2022-09-09T21:38:20.495Z,17.5
2022-09-09T21:43:26.705Z,17.4
2022-09-09T21:48:32.913Z,17.4
2022-09-09T21:53:39.125Z,17.5
2022-09-09T21:58:44.363Z,17.4
2022-09-09T22:03:50.792Z,17.4
2022-09-09T22:08:56.776Z,17.5
2022-09-09T22:14:02.987Z,17.5
2022-09-09T22:19:09.187Z,17.5
2022-09-09T22:24:15.402Z,17.5
2022-09-09T22:29:21.627Z,17.5
2022-09-09T22:34:27.820Z,17.5
2022-09-09T22:39:34.070Z,17.4
2022-09-09T22:44:40.234Z,17.4
2022-09-09T22:49:46.433Z,17.4
2022-09-09T22:54:52.645Z,17.3
2022-09-09T23:05:05.061Z,17.3
2022-09-09T23:10:11.266Z,17.3
2022-09-09T23:15:17.479Z,17.2
2022-09-09T23:20:23.688Z,17.2
2022-09-09T23:25:29.896Z,17.1
2022-09-09T23:30:36.099Z,17.1
2022-09-09T23:35:42.315Z,17.1
2022-09-09T23:40:48.522Z,17.1
2022-09-09T23:45:54.748Z,17.0
2022-09-09T23:50:59.991Z,17.0
2022-09-09T23:56:06.195Z,17.0
